sensor_id;sensor_type;location;lat;lon;timestamp;temperature;humidity
25438;DHT22;13364;49.084;9.978;2022-09-09T00:02:27;14.50;99.90
25438;DHT22;13364;49.084;9.978;2022-09-09T00:07:53;14.60;99.90
25438;DHT22;13364;49.084;9.978;2022-09-09T00:15:59;14.70;99.90
25438;DHT22;13364;49.084;9.978;2022-09-09T00:18:40;14.70;99.90
25438;DHT22;13364;49.084;9.978;2022-09-09T00:21:14;14.70;99.90
25438;DHT22;13364;49.084;9.978;2022-09-09T00:23:48;14.70;99.90
25438;DHT22;13364;49.084;9.978;2022-09-09T00:26:48;14.70;99.90
25438;DHT22;13364;49.084;9.978;2022-09-09T00:31:49;14.80;99.90
25438;DHT22;13364;49.084;9.978;2022-09-09T00:34:22;14.80;99.90
25438;DHT22;13364;49.084;9.978;2022-09-09T00:36:52;14.80;99.90
25438;DHT22;13364;49.084;9.978;2022-09-09T00:44:33;14.80;99.90
25438;DHT22;13364;49.084;9.978;2022-09-09T00:50:24;14.90;99.90
25438;DHT22;13364;49.084;9.978;2022-09-09T00:55:38;14.90;99.90
25438;DHT22;13364;49.084;9.978;2022-09-09T00:58:08;14.90;99.90
25438;DHT22;13364;49.084;9.978;2022-09-09T01:06:00;15.00;99.90
25438;DHT22;13364;49.084;9.978;2022-09-09T01:08:47;15.10;99.90
25438;DHT22;13364;49.084;9.978;2022-09-09T01:11:28;15.10;99.90
25438;DHT22;13364;49.084;9.978;2022-09-09T01:14:10;15.20;99.90
25438;DHT22;13364;49.084;9.978;2022-09-09T01:16:40;15.20;99.90
25438;DHT22;13364;49.084;9.978;2022-09-09T01:19:10;15.30;99.90
25438;DHT22;13364;49.084;9.978;2022-09-09T01:21:53;15.30;99.90
25438;DHT22;13364;49.084;9.978;2022-09-09T01:24:27;15.30;99.90
25438;DHT22;13364;49.084;9.978;2022-09-09T01:27:10;15.30;99.90
25438;DHT22;13364;49.084;9.978;2022-09-09T01:29:39;15.30;99.90
25438;DHT22;13364;49.084;9.978;2022-09-09T01:35:36;15.30;99.90
25438;DHT22;13364;49.084;9.978;2022-09-09T01:38:00;15.30;99.90
25438;DHT22;13364;49.084;9.978;2022-09-09T01:40:28;15.30;99.90
25438;DHT22;13364;49.084;9.978;2022-09-09T01:43:17;15.30;99.90
25438;DHT22;13364;49.084;9.978;2022-09-09T01:45:46;15.30;99.90
25438;DHT22;13364;49.084;9.978;2022-09-09T01:48:16;15.40;99.90
25438;DHT22;13364;49.084;9.978;2022-09-09T01:50:51;15.40;99.90
25438;DHT22;13364;49.084;9.978;2022-09-09T01:53:19;15.40;99.90
25438;DHT22;13364;49.084;9.978;2022-09-09T01:59:06;15.50;99.90
25438;DHT22;13364;49.084;9.978;2022-09-09T02:04:41;15.60;99.90
25438;DHT22;13364;49.084;9.978;2022-09-09T02:10:12;15.70;99.90
25438;DHT22;13364;49.084;9.978;2022-09-09T02:12:51;15.70;99.90
25438;DHT22;13364;49.084;9.978;2022-09-09T02:18:35;15.80;99.90
25438;DHT22;13364;49.084;9.978;2022-09-09T02:24:35;15.80;99.90
25438;DHT22;13364;49.084;9.978;2022-09-09T02:27:18;15.80;99.90
25438;DHT22;13364;49.084;9.978;2022-09-09T02:29:46;15.80;99.90
25438;DHT22;13364;49.084;9.978;2022-09-09T02:32:23;15.80;99.90
25438;DHT22;13364;49.084;9.978;2022-09-09T02:35:05;15.80;99.90
25438;DHT22;13364;49.084;9.978;2022-09-09T02:37:39;15.80;99.90
25438;DHT22;13364;49.084;9.978;2022-09-09T02:40:10;15.70;99.90
25438;DHT22;13364;49.084;9.978;2022-09-09T02:42:46;15.70;99.90
25438;DHT22;13364;49.084;9.978;2022-09-09T02:45:16;15.70;99.90
25438;DHT22;13364;49.084;9.978;2022-09-09T02:48:04;15.70;99.90
25438;DHT22;13364;49.084;9.978;2022-09-09T02:50:34;15.60;99.90
25438;DHT22;13364;49.084;9.978;2022-09-09T02:53:18;15.60;99.90
25438;DHT22;13364;49.084;9.978;2022-09-09T02:56:20;15.50;99.90
25438;DHT22;13364;49.084;9.978;2022-09-09T02:58:48;15.50;99.90
25438;DHT22;13364;49.084;9.978;2022-09-09T03:01:16;15.40;99.90
25438;DHT22;13364;49.084;9.978;2022-09-09T03:03:44;15.30;99.90
25438;DHT22;13364;49.084;9.978;2022-09-09T03:06:15;15.20;99.90
25438;DHT22;13364;49.084;9.978;2022-09-09T03:08:48;15.10;99.90
25438;DHT22;13364;49.084;9.978;2022-09-09T03:11:22;15.10;99.90
25438;DHT22;13364;49.084;9.978;2022-09-09T03:13:49;15.00;99.90
25438;DHT22;13364;49.084;9.978;2022-09-09T03:16:16;14.90;99.90
25438;DHT22;13364;49.084;9.978;2022-09-09T03:18:47;14.80;99.90
25438;DHT22;13364;49.084;9.978;2022-09-09T03:21:14;14.70;99.90
25438;DHT22;13364;49.084;9.978;2022-09-09T03:23:41;14.60;99.90
25438;DHT22;13364;49.084;9.978;2022-09-09T03:26:09;14.50;99.90
25438;DHT22;13364;49.084;9.978;2022-09-09T03:28:43;14.40;99.90
25438;DHT22;13364;49.084;9.978;2022-09-09T03:31:14;14.30;99.90
25438;DHT22;13364;49.084;9.978;2022-09-09T03:33:42;14.20;99.90
25438;DHT22;13364;49.084;9.978;2022-09-09T03:36:12;14.10;99.90
25438;DHT22;13364;49.084;9.978;2022-09-09T03:38:39;14.10;99.90
25438;DHT22;13364;49.084;9.978;2022-09-09T03:41:07;14.00;99.90
25438;DHT22;13364;49.084;9.978;2022-09-09T03:43:35;13.90;99.90
25438;DHT22;13364;49.084;9.978;2022-09-09T03:46:03;13.80;99.90
25438;DHT22;13364;49.084;9.978;2022-09-09T03:48:31;13.80;99.90
25438;DHT22;13364;49.084;9.978;2022-09-09T03:50:58;13.70;99.90
25438;DHT22;13364;49.084;9.978;2022-09-09T03:53:29;13.70;99.90
25438;DHT22;13364;49.084;9.978;2022-09-09T03:55:57;13.60;99.90
25438;DHT22;13364;49.084;9.978;2022-09-09T03:58:27;13.50;99.90
25438;DHT22;13364;49.084;9.978;2022-09-09T04:01:03;13.50;99.90
25438;DHT22;13364;49.084;9.978;2022-09-09T04:03:31;13.40;99.90
25438;DHT22;13364;49.084;9.978;2022-09-09T04:06:02;13.30;99.90
25438;DHT22;13364;49.084;9.978;2022-09-09T04:08:31;13.30;99.90
25438;DHT22;13364;49.084;9.978;2022-09-09T04:11:00;13.20;99.90
25438;DHT22;13364;49.084;9.978;2022-09-09T04:13:28;13.20;99.90
25438;DHT22;13364;49.084;9.978;2022-09-09T04:15:58;13.20;99.90
25438;DHT22;13364;49.084;9.978;2022-09-09T04:18:27;13.20;99.90
25438;DHT22;13364;49.084;9.978;2022-09-09T04:20:58;13.10;99.90
25438;DHT22;13364;49.084;9.978;2022-09-09T04:23:28;13.10;99.90
25438;DHT22;13364;49.084;9.978;2022-09-09T04:25:59;13.00;99.90
25438;DHT22;13364;49.084;9.978;2022-09-09T04:28:29;13.00;99.90
25438;DHT22;13364;49.084;9.978;2022-09-09T04:31:04;13.00;99.90
25438;DHT22;13364;49.084;9.978;2022-09-09T04:33:32;12.90;99.90
25438;DHT22;13364;49.084;9.978;2022-09-09T04:36:06;12.90;99.90
25438;DHT22;13364;49.084;9.978;2022-09-09T04:38:33;12.80;99.90
25438;DHT22;13364;49.084;9.978;2022-09-09T04:41:01;12.80;99.90
25438;DHT22;13364;49.084;9.978;2022-09-09T04:43:28;12.70;99.90
25438;DHT22;13364;49.084;9.978;2022-09-09T04:45:59;12.70;99.90
25438;DHT22;13364;49.084;9.978;2022-09-09T04:48:26;12.70;99.90
25438;DHT22;13364;49.084;9.978;2022-09-09T04:50:59;12.70;99.90
25438;DHT22;13364;49.084;9.978;2022-09-09T04:53:26;12.60;99.90
25438;DHT22;13364;49.084;9.978;2022-09-09T04:58:31;12.70;99.90
25438;DHT22;13364;49.084;9.978;2022-09-09T05:01:13;12.80;99.90
25438;DHT22;13364;49.084;9.978;2022-09-09T05:03:43;12.90;99.90
25438;DHT22;13364;49.084;9.978;2022-09-09T05:06:18;12.90;99.90
25438;DHT22;13364;49.084;9.978;2022-09-09T05:08:48;13.00;99.90
25438;DHT22;13364;49.084;9.978;2022-09-09T05:11:23;13.00;99.90
25438;DHT22;13364;49.084;9.978;2022-09-09T05:13:53;13.00;99.90
25438;DHT22;13364;49.084;9.978;2022-09-09T05:16:21;13.00;99.90
25438;DHT22;13364;49.084;9.978;2022-09-09T05:18:50;12.90;99.90
25438;DHT22;13364;49.084;9.978;2022-09-09T05:21:21;12.90;99.90
25438;DHT22;13364;49.084;9.978;2022-09-09T05:23:49;13.00;99.90
25438;DHT22;13364;49.084;9.978;2022-09-09T05:26:21;13.00;99.90
25438;DHT22;13364;49.084;9.978;2022-09-09T05:28:50;13.00;99.90
25438;DHT22;13364;49.084;9.978;2022-09-09T05:31:18;13.00;99.90
25438;DHT22;13364;49.084;9.978;2022-09-09T05:33:49;13.00;99.90
25438;DHT22;13364;49.084;9.978;2022-09-09T05:36:19;12.90;99.90
25438;DHT22;13364;49.084;9.978;2022-09-09T05:38:49;12.90;99.90
25438;DHT22;13364;49.084;9.978;2022-09-09T05:41:17;12.90;99.90
25438;DHT22;13364;49.084;9.978;2022-09-09T05:43:46;12.90;99.90
25438;DHT22;13364;49.084;9.978;2022-09-09T05:46:17;12.90;99.90
25438;DHT22;13364;49.084;9.978;2022-09-09T05:48:47;13.10;99.90
25438;DHT22;13364;49.084;9.978;2022-09-09T05:51:17;13.30;99.90
25438;DHT22;13364;49.084;9.978;2022-09-09T05:53:45;13.50;99.90
25438;DHT22;13364;49.084;9.978;2022-09-09T05:56:18;13.70;99.90
25438;DHT22;13364;49.084;9.978;2022-09-09T05:58:47;13.90;99.90
25438;DHT22;13364;49.084;9.978;2022-09-09T06:03:43;14.30;99.90
25438;DHT22;13364;49.084;9.978;2022-09-09T06:06:14;14.40;99.90
25438;DHT22;13364;49.084;9.978;2022-09-09T06:08:42;14.60;99.90
25438;DHT22;13364;49.084;9.978;2022-09-09T06:11:17;14.70;99.90
25438;DHT22;13364;49.084;9.978;2022-09-09T06:13:45;14.70;99.90
25438;DHT22;13364;49.084;9.978;2022-09-09T06:16:16;14.80;99.90
25438;DHT22;13364;49.084;9.978;2022-09-09T06:18:44;14.90;99.90
25438;DHT22;13364;49.084;9.978;2022-09-09T06:24:34;15.00;99.90
25438;DHT22;13364;49.084;9.978;2022-09-09T06:27:02;15.00;99.90
25438;DHT22;13364;49.084;9.978;2022-09-09T06:29:32;15.00;99.90
25438;DHT22;13364;49.084;9.978;2022-09-09T06:32:01;15.10;99.90
25438;DHT22;13364;49.084;9.978;2022-09-09T06:34:28;15.10;99.90
25438;DHT22;13364;49.084;9.978;2022-09-09T06:36:58;15.10;99.90
25438;DHT22;13364;49.084;9.978;2022-09-09T06:39:32;15.10;99.90
25438;DHT22;13364;49.084;9.978;2022-09-09T06:41:59;15.20;99.90
25438;DHT22;13364;49.084;9.978;2022-09-09T06:44:46;15.20;99.90
25438;DHT22;13364;49.084;9.978;2022-09-09T06:47:34;15.30;99.90
25438;DHT22;13364;49.084;9.978;2022-09-09T06:50:02;15.40;99.90
25438;DHT22;13364;49.084;9.978;2022-09-09T06:52:34;15.50;99.90
25438;DHT22;13364;49.084;9.978;2022-09-09T06:55:02;15.60;99.90
25438;DHT22;13364;49.084;9.978;2022-09-09T06:57:31;15.70;99.90
25438;DHT22;13364;49.084;9.978;2022-09-09T07:00:06;15.80;99.90
25438;DHT22;13364;49.084;9.978;2022-09-09T07:02:34;15.80;99.90
25438;DHT22;13364;49.084;9.978;2022-09-09T07:05:06;16.00;99.90
25438;DHT22;13364;49.084;9.978;2022-09-09T07:07:35;16.00;99.90
25438;DHT22;13364;49.084;9.978;2022-09-09T07:10:03;16.00;99.90
25438;DHT22;13364;49.084;9.978;2022-09-09T07:12:30;16.20;99.90
25438;DHT22;13364;49.084;9.978;2022-09-09T07:14:59;16.20;99.90
25438;DHT22;13364;49.084;9.978;2022-09-09T07:17:27;16.30;99.90
25438;DHT22;13364;49.084;9.978;2022-09-09T07:19:57;16.40;99.90
25438;DHT22;13364;49.084;9.978;2022-09-09T07:22:48;16.50;99.90
25438;DHT22;13364;49.084;9.978;2022-09-09T07:25:15;16.60;99.90
25438;DHT22;13364;49.084;9.978;2022-09-09T07:27:45;16.70;99.90
25438;DHT22;13364;49.084;9.978;2022-09-09T07:30:12;16.70;99.90
25438;DHT22;13364;49.084;9.978;2022-09-09T07:32:51;16.80;99.90
25438;DHT22;13364;49.084;9.978;2022-09-09T07:35:19;16.90;99.90
25438;DHT22;13364;49.084;9.978;2022-09-09T07:37:46;16.90;99.90
25438;DHT22;13364;49.084;9.978;2022-09-09T07:40:18;17.00;99.90
25438;DHT22;13364;49.084;9.978;2022-09-09T07:42:48;17.10;99.90
25438;DHT22;13364;49.084;9.978;2022-09-09T07:45:16;17.20;99.90
25438;DHT22;13364;49.084;9.978;2022-09-09T07:47:43;17.30;99.90
25438;DHT22;13364;49.084;9.978;2022-09-09T07:50:11;17.50;99.90
25438;DHT22;13364;49.084;9.978;2022-09-09T07:52:38;17.60;99.90
25438;DHT22;13364;49.084;9.978;2022-09-09T07:55:10;17.80;99.90
25438;DHT22;13364;49.084;9.978;2022-09-09T07:57:59;18.00;99.90
25438;DHT22;13364;49.084;9.978;2022-09-09T08:00:29;18.20;99.90
25438;DHT22;13364;49.084;9.978;2022-09-09T08:02:57;18.40;99.90
25438;DHT22;13364;49.084;9.978;2022-09-09T08:05:24;18.50;99.90
25438;DHT22;13364;49.084;9.978;2022-09-09T08:07:51;18.60;99.90
25438;DHT22;13364;49.084;9.978;2022-09-09T08:10:19;18.70;99.90
25438;DHT22;13364;49.084;9.978;2022-09-09T08:12:48;18.70;99.90
25438;DHT22;13364;49.084;9.978;2022-09-09T08:15:36;18.80;99.90
25438;DHT22;13364;49.084;9.978;2022-09-09T08:18:05;19.00;99.90
25438;DHT22;13364;49.084;9.978;2022-09-09T08:23:56;19.20;99.90
25438;DHT22;13364;49.084;9.978;2022-09-09T08:26:30;19.30;99.90
25438;DHT22;13364;49.084;9.978;2022-09-09T08:28:59;19.40;99.90
25438;DHT22;13364;49.084;9.978;2022-09-09T08:31:38;19.50;99.90
25438;DHT22;13364;49.084;9.978;2022-09-09T08:34:06;19.50;99.90
25438;DHT22;13364;49.084;9.978;2022-09-09T08:36:36;19.30;99.90
25438;DHT22;13364;49.084;9.978;2022-09-09T08:39:06;19.40;99.90
25438;DHT22;13364;49.084;9.978;2022-09-09T08:41:52;19.30;99.90
25438;DHT22;13364;49.084;9.978;2022-09-09T08:44:57;19.30;99.90
25438;DHT22;13364;49.084;9.978;2022-09-09T08:47:54;19.40;99.90
25438;DHT22;13364;49.084;9.978;2022-09-09T08:50:37;19.60;99.90
25438;DHT22;13364;49.084;9.978;2022-09-09T08:53:24;19.80;99.90
25438;DHT22;13364;49.084;9.978;2022-09-09T08:59:04;20.00;99.90
25438;DHT22;13364;49.084;9.978;2022-09-09T09:12:55;20.90;99.90
25438;DHT22;13364;49.084;9.978;2022-09-09T09:15:27;20.90;99.90
25438;DHT22;13364;49.084;9.978;2022-09-09T09:18:25;21.00;99.90
25438;DHT22;13364;49.084;9.978;2022-09-09T09:21:25;21.10;99.90
25438;DHT22;13364;49.084;9.978;2022-09-09T09:23:59;21.20;99.90
25438;DHT22;13364;49.084;9.978;2022-09-09T09:26:34;21.30;99.90
25438;DHT22;13364;49.084;9.978;2022-09-09T09:29:19;21.30;99.90
25438;DHT22;13364;49.084;9.978;2022-09-09T09:31:55;21.30;99.90
25438;DHT22;13364;49.084;9.978;2022-09-09T09:34:24;21.30;99.90
25438;DHT22;13364;49.084;9.978;2022-09-09T09:36:57;21.30;99.90
25438;DHT22;13364;49.084;9.978;2022-09-09T09:39:33;21.50;99.90
25438;DHT22;13364;49.084;9.978;2022-09-09T09:42:26;21.70;99.90
25438;DHT22;13364;49.084;9.978;2022-09-09T09:44:56;21.80;99.90
25438;DHT22;13364;49.084;9.978;2022-09-09T09:47:34;22.00;99.90
25438;DHT22;13364;49.084;9.978;2022-09-09T09:50:19;22.10;99.90
25438;DHT22;13364;49.084;9.978;2022-09-09T09:52:57;22.10;99.90
25438;DHT22;13364;49.084;9.978;2022-09-09T09:55:26;22.10;99.90
25438;DHT22;13364;49.084;9.978;2022-09-09T09:58:04;22.00;99.90
25438;DHT22;13364;49.084;9.978;2022-09-09T10:00:32;21.80;99.90
25438;DHT22;13364;49.084;9.978;2022-09-09T10:03:30;21.50;99.90
25438;DHT22;13364;49.084;9.978;2022-09-09T10:05:59;21.30;99.90
25438;DHT22;13364;49.084;9.978;2022-09-09T10:08:28;21.10;99.90
25438;DHT22;13364;49.084;9.978;2022-09-09T10:11:20;20.90;99.90
25438;DHT22;13364;49.084;9.978;2022-09-09T10:14:04;20.80;99.90
25438;DHT22;13364;49.084;9.978;2022-09-09T10:19:34;20.90;99.90
25438;DHT22;13364;49.084;9.978;2022-09-09T10:31:01;21.40;99.90
25438;DHT22;13364;49.084;9.978;2022-09-09T10:33:57;21.50;99.90
25438;DHT22;13364;49.084;9.978;2022-09-09T10:36:27;21.50;99.90
25438;DHT22;13364;49.084;9.978;2022-09-09T10:39:04;21.60;99.90
25438;DHT22;13364;49.084;9.978;2022-09-09T10:41:39;21.60;99.90
25438;DHT22;13364;49.084;9.978;2022-09-09T10:44:26;21.50;99.90
25438;DHT22;13364;49.084;9.978;2022-09-09T10:47:00;21.50;99.90
25438;DHT22;13364;49.084;9.978;2022-09-09T10:50:10;21.50;99.90
25438;DHT22;13364;49.084;9.978;2022-09-09T10:55:28;21.30;99.90
25438;DHT22;13364;49.084;9.978;2022-09-09T10:58:03;21.20;99.90
25438;DHT22;13364;49.084;9.978;2022-09-09T11:03:04;20.90;99.90
25438;DHT22;13364;49.084;9.978;2022-09-09T11:05:43;20.90;99.90
25438;DHT22;13364;49.084;9.978;2022-09-09T11:08:22;20.90;99.90
25438;DHT22;13364;49.084;9.978;2022-09-09T11:11:54;20.60;99.90
25438;DHT22;13364;49.084;9.978;2022-09-09T11:14:15;20.50;99.90
25438;DHT22;13364;49.084;9.978;2022-09-09T11:16:56;20.60;99.90
25438;DHT22;13364;49.084;9.978;2022-09-09T11:24:48;21.00;99.90
25438;DHT22;13364;49.084;9.978;2022-09-09T11:27:27;21.10;99.90
25438;DHT22;13364;49.084;9.978;2022-09-09T11:33:42;21.30;99.90
25438;DHT22;13364;49.084;9.978;2022-09-09T11:39:12;21.60;99.90
25438;DHT22;13364;49.084;9.978;2022-09-09T11:41:41;21.70;99.90
25438;DHT22;13364;49.084;9.978;2022-09-09T11:44:13;21.90;99.90
25438;DHT22;13364;49.084;9.978;2022-09-09T11:52:49;22.70;99.90
25438;DHT22;13364;49.084;9.978;2022-09-09T11:55:27;23.00;99.90
25438;DHT22;13364;49.084;9.978;2022-09-09T12:00:47;23.20;99.90
25438;DHT22;13364;49.084;9.978;2022-09-09T12:06:18;23.60;99.90
25438;DHT22;13364;49.084;9.978;2022-09-09T12:09:27;23.60;99.90
25438;DHT22;13364;49.084;9.978;2022-09-09T12:14:42;23.20;99.90
25438;DHT22;13364;49.084;9.978;2022-09-09T12:17:23;22.90;99.90
25438;DHT22;13364;49.084;9.978;2022-09-09T12:23:09;22.70;99.90
25438;DHT22;13364;49.084;9.978;2022-09-09T12:33:49;23.30;99.90
25438;DHT22;13364;49.084;9.978;2022-09-09T12:36:24;23.30;99.90
25438;DHT22;13364;49.084;9.978;2022-09-09T12:38:56;23.00;99.90
25438;DHT22;13364;49.084;9.978;2022-09-09T12:41:27;22.70;99.90
25438;DHT22;13364;49.084;9.978;2022-09-09T12:44:05;22.40;99.90
25438;DHT22;13364;49.084;9.978;2022-09-09T12:46:39;22.10;99.90
25438;DHT22;13364;49.084;9.978;2022-09-09T12:49:30;21.60;99.90
25438;DHT22;13364;49.084;9.978;2022-09-09T12:54:37;20.60;99.90
25438;DHT22;13364;49.084;9.978;2022-09-09T12:57:14;20.30;99.90
25438;DHT22;13364;49.084;9.978;2022-09-09T12:59:43;19.90;99.90
25438;DHT22;13364;49.084;9.978;2022-09-09T13:02:18;19.50;99.90
25438;DHT22;13364;49.084;9.978;2022-09-09T13:04:47;19.10;99.90
25438;DHT22;13364;49.084;9.978;2022-09-09T13:07:14;18.80;99.90
25438;DHT22;13364;49.084;9.978;2022-09-09T13:09:44;18.40;99.90
25438;DHT22;13364;49.084;9.978;2022-09-09T13:12:15;18.00;99.90
25438;DHT22;13364;49.084;9.978;2022-09-09T13:14:45;17.70;99.90
25438;DHT22;13364;49.084;9.978;2022-09-09T13:17:25;17.60;99.90
25438;DHT22;13364;49.084;9.978;2022-09-09T13:19:56;17.50;99.90
25438;DHT22;13364;49.084;9.978;2022-09-09T13:22:34;17.40;99.90
25438;DHT22;13364;49.084;9.978;2022-09-09T13:25:26;17.50;99.90
25438;DHT22;13364;49.084;9.978;2022-09-09T13:30:36;17.80;99.90
25438;DHT22;13364;49.084;9.978;2022-09-09T13:33:21;17.90;99.90
25438;DHT22;13364;49.084;9.978;2022-09-09T13:38:28;18.20;99.90
25438;DHT22;13364;49.084;9.978;2022-09-09T13:40:59;18.50;99.90
25438;DHT22;13364;49.084;9.978;2022-09-09T13:43:36;18.70;99.90
25438;DHT22;13364;49.084;9.978;2022-09-09T13:46:23;18.90;99.90
25438;DHT22;13364;49.084;9.978;2022-09-09T13:48:58;19.00;99.90
25438;DHT22;13364;49.084;9.978;2022-09-09T13:53:59;19.50;99.90
25438;DHT22;13364;49.084;9.978;2022-09-09T13:56:27;19.70;99.90
25438;DHT22;13364;49.084;9.978;2022-09-09T13:58:54;19.80;99.90
25438;DHT22;13364;49.084;9.978;2022-09-09T14:01:21;19.90;99.90
25438;DHT22;13364;49.084;9.978;2022-09-09T14:03:54;19.90;99.90
25438;DHT22;13364;49.084;9.978;2022-09-09T14:06:22;19.90;99.90
25438;DHT22;13364;49.084;9.978;2022-09-09T14:08:50;19.90;99.90
25438;DHT22;13364;49.084;9.978;2022-09-09T14:11:18;19.90;99.90
25438;DHT22;13364;49.084;9.978;2022-09-09T14:13:46;19.90;99.90
25438;DHT22;13364;49.084;9.978;2022-09-09T14:16:13;19.80;99.90
25438;DHT22;13364;49.084;9.978;2022-09-09T14:18:40;19.80;99.90
25438;DHT22;13364;49.084;9.978;2022-09-09T14:21:07;19.70;99.90
25438;DHT22;13364;49.084;9.978;2022-09-09T14:23:35;19.70;99.90
25438;DHT22;13364;49.084;9.978;2022-09-09T14:26:02;19.80;99.90
25438;DHT22;13364;49.084;9.978;2022-09-09T14:28:29;19.80;99.90
25438;DHT22;13364;49.084;9.978;2022-09-09T14:31:16;19.90;99.90
25438;DHT22;13364;49.084;9.978;2022-09-09T14:33:44;19.90;99.90
25438;DHT22;13364;49.084;9.978;2022-09-09T14:36:12;19.90;99.90
25438;DHT22;13364;49.084;9.978;2022-09-09T14:38:39;19.80;99.90
25438;DHT22;13364;49.084;9.978;2022-09-09T14:41:07;19.80;99.90
25438;DHT22;13364;49.084;9.978;2022-09-09T14:43:37;19.80;99.90
25438;DHT22;13364;49.084;9.978;2022-09-09T14:46:10;19.80;99.90
25438;DHT22;13364;49.084;9.978;2022-09-09T14:48:37;19.90;99.90
25438;DHT22;13364;49.084;9.978;2022-09-09T14:51:13;20.20;99.90
25438;DHT22;13364;49.084;9.978;2022-09-09T14:53:42;20.40;99.90
25438;DHT22;13364;49.084;9.978;2022-09-09T14:56:17;20.70;99.90
25438;DHT22;13364;49.084;9.978;2022-09-09T14:58:45;20.80;99.90
25438;DHT22;13364;49.084;9.978;2022-09-09T15:01:15;20.90;99.90
25438;DHT22;13364;49.084;9.978;2022-09-09T15:03:49;21.00;99.90
25438;DHT22;13364;49.084;9.978;2022-09-09T15:06:16;21.00;99.90
25438;DHT22;13364;49.084;9.978;2022-09-09T15:08:45;20.90;99.90
25438;DHT22;13364;49.084;9.978;2022-09-09T15:11:13;20.80;99.90
25438;DHT22;13364;49.084;9.978;2022-09-09T15:13:42;20.80;99.90
25438;DHT22;13364;49.084;9.978;2022-09-09T15:16:14;20.90;99.90
25438;DHT22;13364;49.084;9.978;2022-09-09T15:18:42;21.10;99.90
25438;DHT22;13364;49.084;9.978;2022-09-09T15:21:14;21.20;99.90
25438;DHT22;13364;49.084;9.978;2022-09-09T15:23:42;21.30;99.90
25438;DHT22;13364;49.084;9.978;2022-09-09T15:26:10;21.30;99.90
25438;DHT22;13364;49.084;9.978;2022-09-09T15:28:38;21.20;99.90
25438;DHT22;13364;49.084;9.978;2022-09-09T15:31:07;21.10;99.90
25438;DHT22;13364;49.084;9.978;2022-09-09T15:33:35;21.00;99.90
25438;DHT22;13364;49.084;9.978;2022-09-09T15:36:19;20.90;99.90
25438;DHT22;13364;49.084;9.978;2022-09-09T15:38:46;20.80;99.90
25438;DHT22;13364;49.084;9.978;2022-09-09T15:41:15;20.70;99.90
25438;DHT22;13364;49.084;9.978;2022-09-09T15:43:50;20.70;99.90
25438;DHT22;13364;49.084;9.978;2022-09-09T15:48:44;20.60;99.90
25438;DHT22;13364;49.084;9.978;2022-09-09T15:51:14;20.50;99.90
25438;DHT22;13364;49.084;9.978;2022-09-09T15:54:26;20.50;99.90
25438;DHT22;13364;49.084;9.978;2022-09-09T15:56:59;20.50;99.90
25438;DHT22;13364;49.084;9.978;2022-09-09T15:59:29;20.40;99.90
25438;DHT22;13364;49.084;9.978;2022-09-09T16:02:13;20.40;99.90
25438;DHT22;13364;49.084;9.978;2022-09-09T16:04:40;20.40;99.90
25438;DHT22;13364;49.084;9.978;2022-09-09T16:07:07;20.40;99.90
25438;DHT22;13364;49.084;9.978;2022-09-09T16:09:35;20.40;99.90
25438;DHT22;13364;49.084;9.978;2022-09-09T16:12:05;20.40;99.90
25438;DHT22;13364;49.084;9.978;2022-09-09T16:14:36;20.30;99.90
25438;DHT22;13364;49.084;9.978;2022-09-09T16:17:03;20.30;99.90
25438;DHT22;13364;49.084;9.978;2022-09-09T16:19:32;20.20;99.90
25438;DHT22;13364;49.084;9.978;2022-09-09T16:22:01;20.10;99.90
25438;DHT22;13364;49.084;9.978;2022-09-09T16:24:29;20.00;99.90
25438;DHT22;13364;49.084;9.978;2022-09-09T16:26:56;20.00;99.90
25438;DHT22;13364;49.084;9.978;2022-09-09T16:29:23;19.90;99.90
25438;DHT22;13364;49.084;9.978;2022-09-09T16:31:54;19.90;99.90
25438;DHT22;13364;49.084;9.978;2022-09-09T16:34:26;19.80;99.90
25438;DHT22;13364;49.084;9.978;2022-09-09T16:36:53;19.70;99.90
25438;DHT22;13364;49.084;9.978;2022-09-09T16:39:21;19.60;99.90
25438;DHT22;13364;49.084;9.978;2022-09-09T16:41:48;19.40;99.90
25438;DHT22;13364;49.084;9.978;2022-09-09T16:44:17;19.30;99.90
25438;DHT22;13364;49.084;9.978;2022-09-09T16:46:47;18.90;99.90
25438;DHT22;13364;49.084;9.978;2022-09-09T16:49:16;18.40;99.90
25438;DHT22;13364;49.084;9.978;2022-09-09T16:51:49;18.00;99.90
25438;DHT22;13364;49.084;9.978;2022-09-09T16:54:20;17.70;99.90
25438;DHT22;13364;49.084;9.978;2022-09-09T16:56:48;17.50;99.90
25438;DHT22;13364;49.084;9.978;2022-09-09T16:59:17;17.20;99.90
25438;DHT22;13364;49.084;9.978;2022-09-09T17:01:46;17.00;99.90
25438;DHT22;13364;49.084;9.978;2022-09-09T17:04:16;16.90;99.90
25438;DHT22;13364;49.084;9.978;2022-09-09T17:06:48;16.70;99.90
25438;DHT22;13364;49.084;9.978;2022-09-09T17:12:38;16.50;99.90
25438;DHT22;13364;49.084;9.978;2022-09-09T17:15:08;16.40;99.90
25438;DHT22;13364;49.084;9.978;2022-09-09T17:21:15;16.30;99.90
25438;DHT22;13364;49.084;9.978;2022-09-09T17:23:42;16.20;99.90
25438;DHT22;13364;49.084;9.978;2022-09-09T17:26:12;16.00;99.90
25438;DHT22;13364;49.084;9.978;2022-09-09T17:28:39;16.00;99.90
25438;DHT22;13364;49.084;9.978;2022-09-09T17:34:39;15.80;99.90
25438;DHT22;13364;49.084;9.978;2022-09-09T17:37:07;15.70;99.90
25438;DHT22;13364;49.084;9.978;2022-09-09T17:39:34;15.60;99.90
25438;DHT22;13364;49.084;9.978;2022-09-09T17:42:01;15.60;99.90
25438;DHT22;13364;49.084;9.978;2022-09-09T17:44:29;15.50;99.90
25438;DHT22;13364;49.084;9.978;2022-09-09T17:46:59;15.50;99.90
25438;DHT22;13364;49.084;9.978;2022-09-09T17:49:26;15.50;99.90
25438;DHT22;13364;49.084;9.978;2022-09-09T17:51:53;15.50;99.90
25438;DHT22;13364;49.084;9.978;2022-09-09T17:54:21;15.50;99.90
25438;DHT22;13364;49.084;9.978;2022-09-09T17:56:48;15.50;99.90
25438;DHT22;13364;49.084;9.978;2022-09-09T17:59:17;15.40;99.90
25438;DHT22;13364;49.084;9.978;2022-09-09T18:01:46;15.40;99.90
25438;DHT22;13364;49.084;9.978;2022-09-09T18:04:16;15.40;99.90
25438;DHT22;13364;49.084;9.978;2022-09-09T18:06:49;15.40;99.90
25438;DHT22;13364;49.084;9.978;2022-09-09T18:09:22;15.30;99.90
25438;DHT22;13364;49.084;9.978;2022-09-09T18:11:52;15.30;99.90
25438;DHT22;13364;49.084;9.978;2022-09-09T18:14:23;15.30;99.90
25438;DHT22;13364;49.084;9.978;2022-09-09T18:16:51;15.30;99.90
25438;DHT22;13364;49.084;9.978;2022-09-09T18:19:21;15.30;99.90
25438;DHT22;13364;49.084;9.978;2022-09-09T18:21:49;15.20;99.90
25438;DHT22;13364;49.084;9.978;2022-09-09T18:24:17;15.20;99.90
25438;DHT22;13364;49.084;9.978;2022-09-09T18:26:45;15.10;99.90
25438;DHT22;13364;49.084;9.978;2022-09-09T18:29:17;15.10;99.90
25438;DHT22;13364;49.084;9.978;2022-09-09T18:31:46;15.00;99.90
25438;DHT22;13364;49.084;9.978;2022-09-09T18:34:15;15.00;99.90
25438;DHT22;13364;49.084;9.978;2022-09-09T18:36:46;15.00;99.90